sensor_id;sensor_type;location;lat;lon;timestamp;pressure;altitude;pressure_sealevel;temperature;humidity
44349;BME280;30068;50.986;4.564;2023-02-18T00:01:46;102467.84;;;17.63;62.87
44349;BME280;30068;50.986;4.564;2023-02-18T00:04:11;102465.88;;;17.54;62.95
44349;BME280;30068;50.986;4.564;2023-02-18T00:06:36;102462.94;;;17.57;62.91
44349;BME280;30068;50.986;4.564;2023-02-18T00:09:03;102458.66;;;17.55;62.92
44349;BME280;30068;50.986;4.564;2023-02-18T00:11:30;102452.25;;;17.56;63.03
44349;BME280;30068;50.986;4.564;2023-02-18T00:13:56;102457.53;;;17.57;62.88
44349;BME280;30068;50.986;4.564;2023-02-18T00:16:22;102455.94;;;17.55;62.82
44349;BME280;30068;50.986;4.564;2023-02-18T00:18:48;102455.25;;;17.53;62.88
44349;BME280;30068;50.986;4.564;2023-02-18T00:21:13;102444.44;;;17.53;62.79
44349;BME280;30068;50.986;4.564;2023-02-18T00:23:39;102438.44;;;17.49;62.80
44349;BME280;30068;50.986;4.564;2023-02-18T00:26:06;102443.31;;;17.55;62.74
44349;BME280;30068;50.986;4.564;2023-02-18T00:28:31;102433.91;;;17.50;62.84
44349;BME280;30068;50.986;4.564;2023-02-18T00:30:56;102430.47;;;17.48;62.83
44349;BME280;30068;50.986;4.564;2023-02-18T00:33:22;102427.06;;;17.46;62.90
44349;BME280;30068;50.986;4.564;2023-02-18T00:35:47;102420.09;;;17.43;63.07
44349;BME280;30068;50.986;4.564;2023-02-18T00:38:12;102421.78;;;17.44;62.94
44349;BME280;30068;50.986;4.564;2023-02-18T00:40:38;102421.25;;;17.50;62.78
44349;BME280;30068;50.986;4.564;2023-02-18T00:43:03;102423.75;;;17.42;62.97
44349;BME280;30068;50.986;4.564;2023-02-18T00:45:29;102423.03;;;17.40;63.13
44349;BME280;30068;50.986;4.564;2023-02-18T00:47:54;102416.53;;;17.43;62.99
44349;BME280;30068;50.986;4.564;2023-02-18T00:50:20;102412.84;;;17.44;62.80
44349;BME280;30068;50.986;4.564;2023-02-18T00:52:45;102425.03;;;17.38;63.10
44349;BME280;30068;50.986;4.564;2023-02-18T00:55:11;102412.53;;;17.37;63.06
44349;BME280;30068;50.986;4.564;2023-02-18T00:57:36;102394.91;;;17.33;63.05
44349;BME280;30068;50.986;4.564;2023-02-18T01:00:02;102384.44;;;17.40;62.74
44349;BME280;30068;50.986;4.564;2023-02-18T01:02:29;102380.38;;;17.34;63.02
44349;BME280;30068;50.986;4.564;2023-02-18T01:04:54;102384.81;;;17.35;63.00
44349;BME280;30068;50.986;4.564;2023-02-18T01:07:19;102395.47;;;17.36;62.96
44349;BME280;30068;50.986;4.564;2023-02-18T01:09:44;102390.59;;;17.30;62.98
44349;BME280;30068;50.986;4.564;2023-02-18T01:12:09;102388.63;;;17.32;63.05
44349;BME280;30068;50.986;4.564;2023-02-18T01:14:35;102382.09;;;17.35;62.99
44349;BME280;30068;50.986;4.564;2023-02-18T01:17:00;102379.81;;;17.30;63.12
44349;BME280;30068;50.986;4.564;2023-02-18T01:19:25;102371.44;;;17.33;62.93
44349;BME280;30068;50.986;4.564;2023-02-18T01:21:51;102374.13;;;17.33;62.81
44349;BME280;30068;50.986;4.564;2023-02-18T01:24:16;102379.09;;;17.28;62.96
44349;BME280;30068;50.986;4.564;2023-02-18T01:26:41;102376.38;;;17.28;62.86
44349;BME280;30068;50.986;4.564;2023-02-18T01:29:06;102379.81;;;17.30;62.80
44349;BME280;30068;50.986;4.564;2023-02-18T01:31:31;102382.91;;;17.26;63.06
44349;BME280;30068;50.986;4.564;2023-02-18T01:33:57;102392.97;;;17.24;63.00
44349;BME280;30068;50.986;4.564;2023-02-18T01:36:22;102383.03;;;17.24;63.12
44349;BME280;30068;50.986;4.564;2023-02-18T01:38:47;102374.09;;;17.24;63.00
44349;BME280;30068;50.986;4.564;2023-02-18T01:41:12;102377.25;;;17.29;62.86
44349;BME280;30068;50.986;4.564;2023-02-18T01:43:38;102368.28;;;17.28;62.85
44349;BME280;30068;50.986;4.564;2023-02-18T01:48:33;102368.09;;;17.20;63.11
44349;BME280;30068;50.986;4.564;2023-02-18T01:51:11;102369.09;;;17.19;63.18
44349;BME280;30068;50.986;4.564;2023-02-18T01:53:43;102365.78;;;17.16;63.30
44349;BME280;30068;50.986;4.564;2023-02-18T01:56:12;102358.69;;;17.15;63.18
44349;BME280;30068;50.986;4.564;2023-02-18T01:58:38;102361.59;;;17.23;63.04
44349;BME280;30068;50.986;4.564;2023-02-18T02:01:04;102358.16;;;17.21;63.00
44349;BME280;30068;50.986;4.564;2023-02-18T02:03:30;102362.38;;;17.14;63.20
44349;BME280;30068;50.986;4.564;2023-02-18T02:05:55;102348.19;;;17.12;63.27
44349;BME280;30068;50.986;4.564;2023-02-18T02:08:20;102354.44;;;17.12;63.41
44349;BME280;30068;50.986;4.564;2023-02-18T02:13:48;102344.47;;;17.13;63.60
44349;BME280;30068;50.986;4.564;2023-02-18T02:16:22;102339.47;;;17.08;63.80
44349;BME280;30068;50.986;4.564;2023-02-18T02:36:12;102323.94;;;17.01;63.78
44349;BME280;30068;50.986;4.564;2023-02-18T02:38:43;102312.38;;;17.10;63.85
44349;BME280;30068;50.986;4.564;2023-02-18T02:46:36;102307.22;;;17.07;63.55
44349;BME280;30068;50.986;4.564;2023-02-18T02:51:49;102302.66;;;16.97;63.96
44349;BME280;30068;50.986;4.564;2023-02-18T02:54:18;102301.50;;;17.00;63.88
44349;BME280;30068;50.986;4.564;2023-02-18T02:56:44;102301.84;;;17.07;63.73
44349;BME280;30068;50.986;4.564;2023-02-18T02:59:10;102295.13;;;17.01;63.64
44349;BME280;30068;50.986;4.564;2023-02-18T03:04:09;102291.59;;;17.01;63.89
44349;BME280;30068;50.986;4.564;2023-02-18T03:11:51;102282.78;;;16.98;63.74
44349;BME280;30068;50.986;4.564;2023-02-18T03:14:21;102279.72;;;17.13;63.30
44349;BME280;30068;50.986;4.564;2023-02-18T03:19:21;102274.72;;;16.98;63.54
44349;BME280;30068;50.986;4.564;2023-02-18T03:21:51;102271.69;;;16.92;63.92
44349;BME280;30068;50.986;4.564;2023-02-18T03:24:25;102269.31;;;16.98;63.73
44349;BME280;30068;50.986;4.564;2023-02-18T03:26:55;102258.53;;;16.98;63.77
44349;BME280;30068;50.986;4.564;2023-02-18T03:29:22;102255.50;;;16.92;63.98
44349;BME280;30068;50.986;4.564;2023-02-18T03:31:49;102253.38;;;16.95;63.74
44349;BME280;30068;50.986;4.564;2023-02-18T03:34:17;102247.09;;;16.85;64.01
44349;BME280;30068;50.986;4.564;2023-02-18T03:36:44;102252.66;;;16.93;63.77
44349;BME280;30068;50.986;4.564;2023-02-18T03:39:10;102251.47;;;16.86;64.07
44349;BME280;30068;50.986;4.564;2023-02-18T03:41:38;102252.50;;;16.85;64.16
44349;BME280;30068;50.986;4.564;2023-02-18T03:44:04;102247.25;;;16.93;63.73
44349;BME280;30068;50.986;4.564;2023-02-18T03:46:30;102248.41;;;16.91;63.89
44349;BME280;30068;50.986;4.564;2023-02-18T03:48:56;102244.84;;;16.90;63.79
44349;BME280;30068;50.986;4.564;2023-02-18T03:51:21;102248.53;;;16.89;63.92
44349;BME280;30068;50.986;4.564;2023-02-18T03:53:46;102227.22;;;16.86;63.99
44349;BME280;30068;50.986;4.564;2023-02-18T03:56:12;102227.94;;;16.88;63.81
44349;BME280;30068;50.986;4.564;2023-02-18T03:58:37;102223.16;;;16.92;63.79
44349;BME280;30068;50.986;4.564;2023-02-18T04:01:02;102220.59;;;16.90;63.69
44349;BME280;30068;50.986;4.564;2023-02-18T04:03:28;102215.97;;;16.81;64.01
44349;BME280;30068;50.986;4.564;2023-02-18T04:05:53;102218.25;;;16.86;63.80
44349;BME280;30068;50.986;4.564;2023-02-18T04:08:18;102219.94;;;16.77;64.18
44349;BME280;30068;50.986;4.564;2023-02-18T04:10:44;102218.81;;;16.80;63.97
44349;BME280;30068;50.986;4.564;2023-02-18T04:13:09;102208.34;;;16.86;63.92
44349;BME280;30068;50.986;4.564;2023-02-18T04:15:34;102205.38;;;16.89;63.49
44349;BME280;30068;50.986;4.564;2023-02-18T04:17:59;102196.44;;;16.89;63.86
44349;BME280;30068;50.986;4.564;2023-02-18T04:20:25;102207.88;;;16.81;64.09
44349;BME280;30068;50.986;4.564;2023-02-18T04:22:50;102204.34;;;16.81;63.89
44349;BME280;30068;50.986;4.564;2023-02-18T04:25:15;102194.16;;;16.84;63.75
44349;BME280;30068;50.986;4.564;2023-02-18T04:27:40;102197.09;;;16.81;63.75
44349;BME280;30068;50.986;4.564;2023-02-18T04:30:06;102197.91;;;16.72;64.22
44349;BME280;30068;50.986;4.564;2023-02-18T04:32:31;102202.09;;;16.86;63.84
44349;BME280;30068;50.986;4.564;2023-02-18T04:34:57;102203.78;;;16.77;64.04
44349;BME280;30068;50.986;4.564;2023-02-18T04:37:22;102202.97;;;16.66;64.26
44349;BME280;30068;50.986;4.564;2023-02-18T04:39:47;102215.09;;;16.71;64.07
44349;BME280;30068;50.986;4.564;2023-02-18T04:42:12;102218.28;;;16.65;64.22
44349;BME280;30068;50.986;4.564;2023-02-18T04:44:38;102217.03;;;16.69;64.22
44349;BME280;30068;50.986;4.564;2023-02-18T04:47:04;102206.50;;;16.66;64.17
44349;BME280;30068;50.986;4.564;2023-02-18T04:49:29;102222.84;;;16.65;64.42
44349;BME280;30068;50.986;4.564;2023-02-18T04:51:54;102214.06;;;16.72;64.06
44349;BME280;30068;50.986;4.564;2023-02-18T04:54:20;102223.88;;;16.73;64.04
44349;BME280;30068;50.986;4.564;2023-02-18T04:56:45;102213.81;;;16.75;63.98
44349;BME280;30068;50.986;4.564;2023-02-18T04:59:10;102224.16;;;16.70;63.97
44349;BME280;30068;50.986;4.564;2023-02-18T05:01:36;102226.84;;;16.70;64.04
44349;BME280;30068;50.986;4.564;2023-02-18T05:04:01;102225.72;;;16.73;63.87
44349;BME280;30068;50.986;4.564;2023-02-18T05:06:26;102233.22;;;16.69;64.16
44349;BME280;30068;50.986;4.564;2023-02-18T05:08:51;102233.88;;;16.62;64.16
44349;BME280;30068;50.986;4.564;2023-02-18T05:11:17;102220.97;;;16.65;64.28
44349;BME280;30068;50.986;4.564;2023-02-18T05:13:42;102222.09;;;16.63;64.24
44349;BME280;30068;50.986;4.564;2023-02-18T05:16:07;102216.91;;;16.71;63.96
44349;BME280;30068;50.986;4.564;2023-02-18T05:18:32;102215.78;;;16.73;63.85
44349;BME280;30068;50.986;4.564;2023-02-18T05:20:58;102204.34;;;16.60;64.23
44349;BME280;30068;50.986;4.564;2023-02-18T05:23:23;102207.78;;;16.62;64.35
44349;BME280;30068;50.986;4.564;2023-02-18T05:25:49;102209.63;;;16.62;64.39
44349;BME280;30068;50.986;4.564;2023-02-18T05:28:15;102212.50;;;16.70;64.05
44349;BME280;30068;50.986;4.564;2023-02-18T05:30:40;102201.66;;;16.60;64.20
44349;BME280;30068;50.986;4.564;2023-02-18T05:33:05;102191.13;;;16.57;64.45
44349;BME280;30068;50.986;4.564;2023-02-18T05:35:30;102189.09;;;16.49;64.77
44349;BME280;30068;50.986;4.564;2023-02-18T05:37:56;102187.81;;;16.65;64.13
44349;BME280;30068;50.986;4.564;2023-02-18T05:40:21;102175.44;;;16.62;64.14
44349;BME280;30068;50.986;4.564;2023-02-18T05:42:46;102179.38;;;16.58;64.27
44349;BME280;30068;50.986;4.564;2023-02-18T05:45:11;102185.25;;;16.52;64.54
44349;BME280;30068;50.986;4.564;2023-02-18T05:47:37;102181.19;;;16.57;64.42
44349;BME280;30068;50.986;4.564;2023-02-18T05:50:02;102181.13;;;16.48;64.39
44349;BME280;30068;50.986;4.564;2023-02-18T05:52:28;102191.16;;;16.46;64.47
44349;BME280;30068;50.986;4.564;2023-02-18T05:54:53;102177.16;;;16.52;64.31
44349;BME280;30068;50.986;4.564;2023-02-18T05:57:18;102186.50;;;16.48;64.42
44349;BME280;30068;50.986;4.564;2023-02-18T05:59:44;102177.16;;;16.52;64.23
44349;BME280;30068;50.986;4.564;2023-02-18T06:02:09;102178.56;;;16.46;64.26
44349;BME280;30068;50.986;4.564;2023-02-18T06:04:34;102168.63;;;16.47;64.31
44349;BME280;30068;50.986;4.564;2023-02-18T06:06:59;102170.34;;;16.48;64.21
44349;BME280;30068;50.986;4.564;2023-02-18T06:09:25;102161.22;;;16.39;64.27
44349;BME280;30068;50.986;4.564;2023-02-18T06:11:50;102168.63;;;16.47;63.78
44349;BME280;30068;50.986;4.564;2023-02-18T06:14:15;102176.72;;;16.47;63.64
44349;BME280;30068;50.986;4.564;2023-02-18T06:16:41;102168.19;;;16.42;63.90
44349;BME280;30068;50.986;4.564;2023-02-18T06:19:06;102169.63;;;16.46;63.88
44349;BME280;30068;50.986;4.564;2023-02-18T06:21:31;102172.31;;;16.46;63.61
44349;BME280;30068;50.986;4.564;2023-02-18T06:23:57;102169.91;;;16.43;63.75
44349;BME280;30068;50.986;4.564;2023-02-18T06:26:22;102163.19;;;16.37;63.58
44349;BME280;30068;50.986;4.564;2023-02-18T06:28:48;102163.31;;;16.36;63.64
44349;BME280;30068;50.986;4.564;2023-02-18T06:31:13;102171.97;;;16.39;63.42
44349;BME280;30068;50.986;4.564;2023-02-18T06:33:38;102166.78;;;16.27;63.49
44349;BME280;30068;50.986;4.564;2023-02-18T06:36:04;102167.72;;;16.37;63.17
44349;BME280;30068;50.986;4.564;2023-02-18T06:38:35;102174.22;;;16.34;63.25
44349;BME280;30068;50.986;4.564;2023-02-18T06:41:01;102167.25;;;16.32;63.06
44349;BME280;30068;50.986;4.564;2023-02-18T06:43:26;102174.34;;;16.33;62.80
44349;BME280;30068;50.986;4.564;2023-02-18T06:45:52;102166.78;;;16.27;62.92
44349;BME280;30068;50.986;4.564;2023-02-18T06:48:17;102180.78;;;16.20;63.21
44349;BME280;30068;50.986;4.564;2023-02-18T06:50:43;102175.59;;;16.29;62.54
44349;BME280;30068;50.986;4.564;2023-02-18T06:53:08;102165.56;;;16.31;62.63
44349;BME280;30068;50.986;4.564;2023-02-18T06:55:34;102165.16;;;16.35;62.21
44349;BME280;30068;50.986;4.564;2023-02-18T06:57:59;102168.38;;;16.50;61.40
44349;BME280;30068;50.986;4.564;2023-02-18T07:00:24;102168.59;;;16.58;61.26
44349;BME280;30068;50.986;4.564;2023-02-18T07:02:49;102157.22;;;16.75;60.59
44349;BME280;30068;50.986;4.564;2023-02-18T07:05:15;102160.09;;;16.83;60.37
44349;BME280;30068;50.986;4.564;2023-02-18T07:07:40;102165.97;;;16.68;60.87
44349;BME280;30068;50.986;4.564;2023-02-18T07:10:05;102163.56;;;16.65;61.04
44349;BME280;30068;50.986;4.564;2023-02-18T07:12:31;102152.06;;;16.72;60.79
44349;BME280;30068;50.986;4.564;2023-02-18T07:14:56;102149.13;;;16.75;61.14
44349;BME280;30068;50.986;4.564;2023-02-18T07:17:22;102149.03;;;16.86;60.88
44349;BME280;30068;50.986;4.564;2023-02-18T07:19:47;102138.00;;;16.89;60.91
44349;BME280;30068;50.986;4.564;2023-02-18T07:22:12;102139.88;;;16.98;60.49
44349;BME280;30068;50.986;4.564;2023-02-18T07:24:37;102139.16;;;16.96;60.54
44349;BME280;30068;50.986;4.564;2023-02-18T07:27:03;102156.63;;;17.02;60.37
44349;BME280;30068;50.986;4.564;2023-02-18T07:29:28;102154.38;;;17.07;60.38
44349;BME280;30068;50.986;4.564;2023-02-18T07:31:53;102157.66;;;17.11;59.63
44349;BME280;30068;50.986;4.564;2023-02-18T07:34:19;102150.25;;;17.13;59.75
44349;BME280;30068;50.986;4.564;2023-02-18T07:36:45;102149.16;;;17.15;59.87
44349;BME280;30068;50.986;4.564;2023-02-18T07:39:11;102158.53;;;17.11;59.96
44349;BME280;30068;50.986;4.564;2023-02-18T07:41:36;102154.97;;;17.20;59.66
44349;BME280;30068;50.986;4.564;2023-02-18T07:44:02;102165.63;;;17.12;59.82
44349;BME280;30068;50.986;4.564;2023-02-18T07:46:27;102155.28;;;17.17;59.59
44349;BME280;30068;50.986;4.564;2023-02-18T07:48:52;102165.63;;;17.22;59.27
44349;BME280;30068;50.986;4.564;2023-02-18T07:51:18;102166.22;;;17.25;59.38
44349;BME280;30068;50.986;4.564;2023-02-18T07:53:43;102165.38;;;17.25;59.35
44349;BME280;30068;50.986;4.564;2023-02-18T07:56:08;102161.69;;;17.26;59.30
44349;BME280;30068;50.986;4.564;2023-02-18T07:58:34;102157.28;;;17.25;59.30
44349;BME280;30068;50.986;4.564;2023-02-18T08:01:03;102169.78;;;17.26;58.91
44349;BME280;30068;50.986;4.564;2023-02-18T08:03:29;102174.63;;;17.32;59.15
44349;BME280;30068;50.986;4.564;2023-02-18T08:05:55;102175.31;;;17.34;58.91
44349;BME280;30068;50.986;4.564;2023-02-18T08:08:22;102179.47;;;17.38;58.85
44349;BME280;30068;50.986;4.564;2023-02-18T08:10:47;102177.75;;;17.37;58.93
44349;BME280;30068;50.986;4.564;2023-02-18T08:13:13;102171.63;;;17.35;58.55
44349;BME280;30068;50.986;4.564;2023-02-18T08:15:39;102188.44;;;17.38;58.60
44349;BME280;30068;50.986;4.564;2023-02-18T08:18:04;102198.38;;;17.38;58.83
44349;BME280;30068;50.986;4.564;2023-02-18T08:20:30;102192.97;;;17.38;58.68
44349;BME280;30068;50.986;4.564;2023-02-18T08:22:55;102184.16;;;17.36;58.75
44349;BME280;30068;50.986;4.564;2023-02-18T08:25:20;102192.34;;;17.25;58.70
44349;BME280;30068;50.986;4.564;2023-02-18T08:27:46;102189.13;;;17.41;58.33
44349;BME280;30068;50.986;4.564;2023-02-18T08:30:11;102186.47;;;17.50;57.87
44349;BME280;30068;50.986;4.564;2023-02-18T08:32:37;102191.44;;;17.45;57.93
44349;BME280;30068;50.986;4.564;2023-02-18T08:35:02;102179.66;;;17.46;57.99
44349;BME280;30068;50.986;4.564;2023-02-18T08:37:28;102182.06;;;17.49;58.24
44349;BME280;30068;50.986;4.564;2023-02-18T08:39:53;102175.66;;;17.50;57.94
44349;BME280;30068;50.986;4.564;2023-02-18T08:42:18;102174.09;;;17.48;58.22
44349;BME280;30068;50.986;4.564;2023-02-18T08:44:44;102184.03;;;17.47;58.07
44349;BME280;30068;50.986;4.564;2023-02-18T08:47:09;102170.28;;;17.50;58.47
44349;BME280;30068;50.986;4.564;2023-02-18T08:49:34;102177.94;;;17.45;58.15
44349;BME280;30068;50.986;4.564;2023-02-18T08:52:01;102171.69;;;17.45;58.00
44349;BME280;30068;50.986;4.564;2023-02-18T08:54:26;102171.13;;;17.51;57.85
44349;BME280;30068;50.986;4.564;2023-02-18T08:56:55;102173.72;;;17.62;57.73
44349;BME280;30068;50.986;4.564;2023-02-18T08:59:22;102159.38;;;17.61;57.54
44349;BME280;30068;50.986;4.564;2023-02-18T09:01:47;102162.81;;;17.63;57.81
44349;BME280;30068;50.986;4.564;2023-02-18T09:04:13;102159.38;;;17.61;57.67
44349;BME280;30068;50.986;4.564;2023-02-18T09:06:38;102152.25;;;17.60;57.73
44349;BME280;30068;50.986;4.564;2023-02-18T09:09:03;102148.44;;;17.63;57.64
44349;BME280;30068;50.986;4.564;2023-02-18T09:11:28;102144.75;;;17.64;57.79
44349;BME280;30068;50.986;4.564;2023-02-18T09:13:54;102157.13;;;17.66;57.65
44349;BME280;30068;50.986;4.564;2023-02-18T09:16:19;102155.41;;;17.65;57.79
44349;BME280;30068;50.986;4.564;2023-02-18T09:18:45;102157.78;;;17.59;57.76
44349;BME280;30068;50.986;4.564;2023-02-18T09:21:11;102167.47;;;17.61;57.65
44349;BME280;30068;50.986;4.564;2023-02-18T09:23:37;102162.06;;;17.61;57.43
44349;BME280;30068;50.986;4.564;2023-02-18T09:26:03;102157.19;;;17.55;57.85
44349;BME280;30068;50.986;4.564;2023-02-18T09:28:29;102164.06;;;17.59;57.61
44349;BME280;30068;50.986;4.564;2023-02-18T09:30:54;102161.25;;;17.70;57.13
44349;BME280;30068;50.986;4.564;2023-02-18T09:33:19;102167.38;;;17.72;57.11
44349;BME280;30068;50.986;4.564;2023-02-18T09:35:45;102171.47;;;17.76;57.20
44349;BME280;30068;50.986;4.564;2023-02-18T09:38:11;102185.28;;;17.73;57.53
44349;BME280;30068;50.986;4.564;2023-02-18T09:40:37;102172.63;;;17.74;57.40
44349;BME280;30068;50.986;4.564;2023-02-18T09:43:03;102172.03;;;17.70;57.33
44349;BME280;30068;50.986;4.564;2023-02-18T09:45:29;102175.47;;;17.72;57.11
44349;BME280;30068;50.986;4.564;2023-02-18T09:47:54;102183.13;;;17.77;57.34
44349;BME280;30068;50.986;4.564;2023-02-18T09:50:21;102185.72;;;17.79;57.21
44349;BME280;30068;50.986;4.564;2023-02-18T09:52:46;102188.97;;;17.72;57.33
44349;BME280;30068;50.986;4.564;2023-02-18T09:55:27;102186.53;;;17.69;57.32
44349;BME280;30068;50.986;4.564;2023-02-18T09:57:55;102182.28;;;17.67;57.35
44349;BME280;30068;50.986;4.564;2023-02-18T10:00:22;102178.44;;;17.69;57.35
44349;BME280;30068;50.986;4.564;2023-02-18T10:02:56;102179.97;;;17.62;57.59
44349;BME280;30068;50.986;4.564;2023-02-18T10:05:21;102183.34;;;17.55;57.59
44349;BME280;30068;50.986;4.564;2023-02-18T10:07:47;102188.75;;;17.55;57.78
44349;BME280;30068;50.986;4.564;2023-02-18T10:10:20;102183.06;;;17.58;57.87
44349;BME280;30068;50.986;4.564;2023-02-18T10:12:49;102182.59;;;17.43;57.83
44349;BME280;30068;50.986;4.564;2023-02-18T10:15:18;102188.59;;;17.47;57.80
44349;BME280;30068;50.986;4.564;2023-02-18T10:17:45;102183.59;;;17.42;57.96
44349;BME280;30068;50.986;4.564;2023-02-18T10:20:14;102190.16;;;17.49;57.74
44349;BME280;30068;50.986;4.564;2023-02-18T10:22:40;102190.53;;;17.35;58.06
44349;BME280;30068;50.986;4.564;2023-02-18T10:25:06;102185.56;;;17.40;58.01
44349;BME280;30068;50.986;4.564;2023-02-18T10:27:33;102194.50;;;17.31;58.29
44349;BME280;30068;50.986;4.564;2023-02-18T10:32:42;102188.69;;;17.26;58.42
44349;BME280;30068;50.986;4.564;2023-02-18T10:35:20;102196.59;;;17.27;58.46
44349;BME280;30068;50.986;4.564;2023-02-18T10:50:55;102211.06;;;17.17;58.72
44349;BME280;30068;50.986;4.564;2023-02-18T10:55:50;102211.19;;;17.15;58.66
44349;BME280;30068;50.986;4.564;2023-02-18T11:00:52;102214.31;;;17.11;58.98
44349;BME280;30068;50.986;4.564;2023-02-18T11:03:19;102222.66;;;17.08;59.06
44349;BME280;30068;50.986;4.564;2023-02-18T11:05:46;102215.53;;;17.07;59.23
44349;BME280;30068;50.986;4.564;2023-02-18T11:08:16;102224.09;;;17.12;59.25
44349;BME280;30068;50.986;4.564;2023-02-18T11:10:42;102226.81;;;17.12;58.96
44349;BME280;30068;50.986;4.564;2023-02-18T11:13:09;102232.44;;;17.09;59.12
44349;BME280;30068;50.986;4.564;2023-02-18T11:15:36;102228.03;;;17.08;59.34
44349;BME280;30068;50.986;4.564;2023-02-18T11:18:13;102225.47;;;17.06;59.30
44349;BME280;30068;50.986;4.564;2023-02-18T11:20:38;102226.31;;;17.07;59.32
44349;BME280;30068;50.986;4.564;2023-02-18T11:25:30;102213.25;;;17.02;59.53
44349;BME280;30068;50.986;4.564;2023-02-18T11:28:04;102202.06;;;17.07;59.21
44349;BME280;30068;50.986;4.564;2023-02-18T11:30:37;102209.28;;;17.06;59.39
44349;BME280;30068;50.986;4.564;2023-02-18T11:33:08;102219.75;;;16.99;59.50
44349;BME280;30068;50.986;4.564;2023-02-18T11:35:33;102221.59;;;16.99;59.65
44349;BME280;30068;50.986;4.564;2023-02-18T11:37:59;102220.06;;;17.06;59.49
44349;BME280;30068;50.986;4.564;2023-02-18T11:40:28;102224.72;;;16.94;59.79
44349;BME280;30068;50.986;4.564;2023-02-18T11:45:32;102219.31;;;16.94;59.78
44349;BME280;30068;50.986;4.564;2023-02-18T11:47:59;102218.19;;;16.97;59.74
44349;BME280;30068;50.986;4.564;2023-02-18T11:50:24;102217.47;;;16.95;59.96
44349;BME280;30068;50.986;4.564;2023-02-18T11:52:50;102206.28;;;16.99;59.67
44349;BME280;30068;50.986;4.564;2023-02-18T11:55:22;102205.41;;;16.99;59.78
44349;BME280;30068;50.986;4.564;2023-02-18T11:58:08;102215.75;;;16.94;59.77
44349;BME280;30068;50.986;4.564;2023-02-18T12:00:40;102220.59;;;16.90;59.96
44349;BME280;30068;50.986;4.564;2023-02-18T12:03:08;102225.97;;;16.90;60.04
44349;BME280;30068;50.986;4.564;2023-02-18T12:05:39;102215.19;;;16.90;60.00
44349;BME280;30068;50.986;4.564;2023-02-18T12:11:16;102221.56;;;16.89;60.12
44349;BME280;30068;50.986;4.564;2023-02-18T12:13:49;102223.81;;;16.84;60.14
44349;BME280;30068;50.986;4.564;2023-02-18T12:16:29;102229.13;;;16.95;59.04
44349;BME280;30068;50.986;4.564;2023-02-18T12:19:09;102223.63;;;16.76;60.01
44349;BME280;30068;50.986;4.564;2023-02-18T12:29:16;102222.03;;;16.74;60.09
44349;BME280;30068;50.986;4.564;2023-02-18T12:31:55;102217.50;;;16.74;59.91
44349;BME280;30068;50.986;4.564;2023-02-18T12:39:52;102220.47;;;16.71;60.47
44349;BME280;30068;50.986;4.564;2023-02-18T12:47:46;102222.81;;;16.44;61.08
44349;BME280;30068;50.986;4.564;2023-02-18T13:01:09;102215.28;;;18.09;56.65
44349;BME280;30068;50.986;4.564;2023-02-18T13:06:28;102216.59;;;18.63;55.00
44349;BME280;30068;50.986;4.564;2023-02-18T13:11:31;102216.97;;;18.87;55.09
44349;BME280;30068;50.986;4.564;2023-02-18T13:14:01;102216.09;;;18.96;54.64
44349;BME280;30068;50.986;4.564;2023-02-18T13:16:27;102211.78;;;19.03;54.97
44349;BME280;30068;50.986;4.564;2023-02-18T13:18:57;102214.59;;;19.11;54.84
44349;BME280;30068;50.986;4.564;2023-02-18T13:21:23;102204.03;;;19.18;55.20
44349;BME280;30068;50.986;4.564;2023-02-18T13:23:51;102207.41;;;19.29;54.86
44349;BME280;30068;50.986;4.564;2023-02-18T13:26:17;102207.09;;;19.32;55.28
44349;BME280;30068;50.986;4.564;2023-02-18T13:28:51;102208.19;;;18.46;56.50
44349;BME280;30068;50.986;4.564;2023-02-18T13:34:01;102199.94;;;18.67;56.85
44349;BME280;30068;50.986;4.564;2023-02-18T13:41:22;102196.59;;;19.29;55.06
44349;BME280;30068;50.986;4.564;2023-02-18T13:43:49;102211.22;;;19.37;54.80
44349;BME280;30068;50.986;4.564;2023-02-18T13:46:15;102209.03;;;18.08;57.06
44349;BME280;30068;50.986;4.564;2023-02-18T13:49:05;102199.81;;;17.52;58.41
44349;BME280;30068;50.986;4.564;2023-02-18T13:53:55;102205.94;;;16.83;60.80
44349;BME280;30068;50.986;4.564;2023-02-18T13:56:27;102196.38;;;17.90;57.35
44349;BME280;30068;50.986;4.564;2023-02-18T13:58:54;102200.22;;;18.16;56.30
44349;BME280;30068;50.986;4.564;2023-02-18T14:03:55;102196.78;;;18.43;55.28
44349;BME280;30068;50.986;4.564;2023-02-18T14:06:31;102203.91;;;18.53;55.23
44349;BME280;30068;50.986;4.564;2023-02-18T14:11:41;102195.50;;;18.66;54.56
44349;BME280;30068;50.986;4.564;2023-02-18T14:14:14;102191.50;;;18.70;54.62
44349;BME280;30068;50.986;4.564;2023-02-18T14:19:27;102190.50;;;18.81;54.20
44349;BME280;30068;50.986;4.564;2023-02-18T14:21:52;102183.94;;;18.83;54.28
44349;BME280;30068;50.986;4.564;2023-02-18T14:24:47;102185.34;;;18.87;54.04
44349;BME280;30068;50.986;4.564;2023-02-18T14:27:14;102194.72;;;18.93;54.07
44349;BME280;30068;50.986;4.564;2023-02-18T14:29:39;102191.03;;;18.94;53.98
44349;BME280;30068;50.986;4.564;2023-02-18T14:32:11;102191.75;;;18.96;53.85
44349;BME280;30068;50.986;4.564;2023-02-18T14:34:52;102185.03;;;19.00;53.79
44349;BME280;30068;50.986;4.564;2023-02-18T14:45:08;102164.50;;;19.07;53.67
44349;BME280;30068;50.986;4.564;2023-02-18T14:50:20;102172.31;;;19.10;53.70
44349;BME280;30068;50.986;4.564;2023-02-18T14:52:52;102179.28;;;19.13;53.28
44349;BME280;30068;50.986;4.564;2023-02-18T14:55:26;102175.44;;;19.15;53.35
44349;BME280;30068;50.986;4.564;2023-02-18T14:58:02;102179.84;;;19.16;53.46
44349;BME280;30068;50.986;4.564;2023-02-18T15:00:32;102179.66;;;19.18;53.45
44349;BME280;30068;50.986;4.564;2023-02-18T15:02:59;102176.97;;;19.18;53.45